createdAt,value
2018-09-01T00:02:22.759Z,100832.55
2018-09-01T00:04:49.732Z,100830.16
2018-09-01T00:07:16.663Z,100824.69
2018-09-01T00:09:43.608Z,100817.70
2018-09-01T00:12:10.573Z,100817.55
2018-09-01T00:14:37.520Z,100823.45
2018-09-01T00:17:05.551Z,100823.78
2018-09-01T00:19:33.684Z,100824.49
2018-09-01T00:22:00.568Z,100825.50
2018-09-01T00:24:27.490Z,100820.66
2018-09-01T00:26:54.447Z,100823.06
2018-09-01T00:29:22.407Z,100818.31
2018-09-01T00:31:49.328Z,100821.49
2018-09-01T00:34:16.288Z,100810.66
2018-09-01T00:36:43.247Z,100819.10
2018-09-01T00:39:10.177Z,100812.54
2018-09-01T00:41:37.167Z,100815.80
2018-09-01T00:44:04.130Z,100812.60
2018-09-01T00:46:31.599Z,100803.09
2018-09-01T00:48:58.538Z,100805.30
2018-09-01T00:51:25.501Z,100811.11
2018-09-01T00:53:52.466Z,100803.38
2018-09-01T00:56:21.350Z,100804.62
2018-09-01T00:58:48.348Z,100805.93
2018-09-01T01:01:15.251Z,100814.65
2018-09-01T01:03:42.223Z,100813.13
2018-09-01T01:06:09.168Z,100819.77
2018-09-01T01:08:36.136Z,100822.08
2018-09-01T01:11:03.037Z,100829.62
2018-09-01T01:13:29.936Z,100831.62
2018-09-01T01:15:57.944Z,100832.31
2018-09-01T01:18:24.882Z,100840.16
2018-09-01T01:20:51.948Z,100841.13
2018-09-01T01:23:19.941Z,100839.27
2018-09-01T01:25:47.844Z,100835.81
2018-09-01T01:28:14.773Z,100833.07
2018-09-01T01:30:41.707Z,100839.15
2018-09-01T01:33:08.643Z,100834.46
2018-09-01T01:35:36.471Z,100842.78
2018-09-01T01:38:03.479Z,100835.91
2018-09-01T01:40:31.387Z,100843.89
2018-09-01T01:42:58.354Z,100841.64
2018-09-01T01:45:25.327Z,100845.23
2018-09-01T01:47:52.890Z,100842.27
2018-09-01T01:50:19.849Z,100847.88
2018-09-01T01:52:46.822Z,100845.88
2018-09-01T01:55:13.707Z,100844.72
2018-09-01T01:57:46.420Z,100855.48
2018-09-01T02:00:13.419Z,100859.00
2018-09-01T02:02:40.372Z,100856.65
2018-09-01T02:05:08.930Z,100861.53
2018-09-01T02:07:35.904Z,100860.80
2018-09-01T02:10:02.856Z,100865.31
2018-09-01T02:12:29.787Z,100866.36
2018-09-01T02:14:57.388Z,100868.41
2018-09-01T02:17:24.360Z,100870.53
2018-09-01T02:19:51.376Z,100871.35
2018-09-01T02:22:18.984Z,100872.36
2018-09-01T02:24:45.952Z,100870.42
2018-09-01T02:27:13.870Z,100873.11
2018-09-01T02:29:40.828Z,100872.59
2018-09-01T02:32:07.724Z,100873.78
2018-09-01T02:34:34.694Z,100874.50
2018-09-01T02:37:01.669Z,100874.09
2018-09-01T02:39:29.430Z,100869.91
2018-09-01T02:41:56.425Z,100865.72
2018-09-01T02:44:23.959Z,100877.59
2018-09-01T02:46:50.960Z,100872.45
2018-09-01T02:49:17.932Z,100878.23
2018-09-01T02:51:45.432Z,100882.73
2018-09-01T02:54:12.391Z,100879.48
2018-09-01T02:56:39.348Z,100884.61
2018-09-01T02:59:06.272Z,100890.38
2018-09-01T03:01:35.834Z,100885.91
2018-09-01T03:04:03.175Z,100891.92
2018-09-01T03:06:42.570Z,100887.18
2018-09-01T03:09:09.509Z,100890.53
2018-09-01T03:11:36.439Z,100892.09
2018-09-01T03:14:03.411Z,100887.91
2018-09-01T03:16:31.396Z,100886.48
2018-09-01T03:18:58.355Z,100889.44
2018-09-01T03:21:25.282Z,100887.17
2018-09-01T03:23:53.000Z,100888.09
2018-09-01T03:26:19.979Z,100891.81
2018-09-01T03:28:46.887Z,100892.63
2018-09-01T03:31:13.980Z,100893.52
2018-09-01T03:33:40.835Z,100892.52
2018-09-01T03:36:07.758Z,100902.91
2018-09-01T03:38:34.719Z,100901.36
2018-09-01T03:41:01.639Z,100893.58
2018-09-01T03:43:28.691Z,100887.58
2018-09-01T03:45:55.607Z,100885.98
2018-09-01T03:48:24.580Z,100883.86
2018-09-01T03:50:51.535Z,100877.81
2018-09-01T03:53:19.547Z,100883.14
2018-09-01T03:55:46.514Z,100883.56
2018-09-01T03:58:13.446Z,100886.09
2018-09-01T04:00:40.411Z,100881.69
2018-09-01T04:03:07.387Z,100886.01
2018-09-01T04:05:34.367Z,100881.66
2018-09-01T04:08:01.395Z,100885.09
2018-09-01T04:10:28.432Z,100885.48
2018-09-01T04:12:55.407Z,100890.46
2018-09-01T04:15:22.358Z,100888.14
2018-09-01T04:17:49.316Z,100886.20
2018-09-01T04:20:16.271Z,100890.19
2018-09-01T04:22:43.279Z,100887.58
2018-09-01T04:25:10.182Z,100891.57
2018-09-01T04:27:37.177Z,100897.33
2018-09-01T04:30:05.217Z,100899.10
2018-09-01T04:32:32.075Z,100897.09
2018-09-01T04:34:58.975Z,100895.77
2018-09-01T04:37:25.899Z,100895.52
2018-09-01T04:39:53.460Z,100892.16
2018-09-01T04:42:20.435Z,100893.31
2018-09-01T04:44:47.370Z,100895.34
2018-09-01T04:47:14.348Z,100900.08
2018-09-01T04:49:41.311Z,100897.36
2018-09-01T04:52:08.276Z,100902.44
2018-09-01T04:54:35.248Z,100903.74
2018-09-01T04:57:02.226Z,100902.35
2018-09-01T04:59:29.091Z,100901.67
2018-09-01T05:01:57.011Z,100899.83
2018-09-01T05:04:24.625Z,100905.53
2018-09-01T05:06:51.503Z,100906.34
2018-09-01T05:09:20.084Z,100905.67
2018-09-01T05:11:46.981Z,100908.88
2018-09-01T05:14:13.960Z,100908.44
2018-09-01T05:16:40.875Z,100907.03
2018-09-01T05:19:07.886Z,100911.67
2018-09-01T05:21:38.539Z,100918.19
2018-09-01T05:24:05.502Z,100912.83
2018-09-01T05:26:32.395Z,100920.70
2018-09-01T05:29:00.488Z,100916.58
2018-09-01T05:31:28.479Z,100913.25
2018-09-01T05:33:55.456Z,100925.14
2018-09-01T05:36:22.438Z,100925.94
2018-09-01T05:38:49.387Z,100932.91
2018-09-01T05:41:16.321Z,100935.59
2018-09-01T05:43:43.507Z,100933.17
2018-09-01T05:46:10.435Z,100929.49
2018-09-01T05:48:38.227Z,100937.56
2018-09-01T05:51:05.195Z,100940.88
2018-09-01T05:53:33.052Z,100932.00
2018-09-01T05:56:00.007Z,100930.98
2018-09-01T05:58:26.968Z,100933.52
2018-09-01T06:00:53.883Z,100933.41
2018-09-01T06:03:21.596Z,100936.58
2018-09-01T06:05:49.246Z,100940.78
2018-09-01T06:08:16.744Z,100937.34
2018-09-01T06:10:43.713Z,100933.83
2018-09-01T06:13:10.648Z,100933.95
2018-09-01T06:15:38.719Z,100941.52
2018-09-01T06:18:06.096Z,100938.91
2018-09-01T06:20:33.621Z,100948.00
2018-09-01T06:23:01.584Z,100949.05
2018-09-01T06:25:28.580Z,100953.14
2018-09-01T06:27:58.416Z,100954.87
2018-09-01T06:30:28.135Z,100960.44
2018-09-01T06:32:55.128Z,100960.05
2018-09-01T06:35:22.090Z,100961.92
2018-09-01T06:37:49.075Z,100971.58
2018-09-01T06:40:16.090Z,100964.94
2018-09-01T06:42:43.027Z,100964.64
2018-09-01T06:45:10.060Z,100958.06
2018-09-01T06:47:36.967Z,100965.14
2018-09-01T06:50:03.928Z,100963.58
2018-09-01T06:52:30.904Z,100963.73
2018-09-01T06:54:58.869Z,100973.41
2018-09-01T06:57:25.869Z,100971.77
2018-09-01T06:59:52.768Z,100979.80
2018-09-01T07:02:19.757Z,100976.80
2018-09-01T07:04:46.669Z,100979.28
2018-09-01T07:07:14.568Z,100981.88
2018-09-01T07:09:41.523Z,100984.29
2018-09-01T07:12:08.494Z,100994.03
2018-09-01T07:14:35.455Z,100987.64
2018-09-01T07:17:02.351Z,100995.88
2018-09-01T07:19:29.252Z,100996.09
2018-09-01T07:21:56.238Z,100997.73
2018-09-01T07:24:24.195Z,101003.64
2018-09-01T07:26:51.150Z,100997.86
2018-09-01T07:29:19.158Z,101000.45
2018-09-01T07:31:46.159Z,100994.92
2018-09-01T07:34:13.195Z,101008.53
2018-09-01T07:36:40.120Z,101003.48
2018-09-01T07:39:07.506Z,101000.22
2018-09-01T07:41:34.423Z,101004.14
2018-09-01T07:44:01.443Z,101009.30
2018-09-01T07:46:28.373Z,101011.97
2018-09-01T07:48:55.432Z,101005.97
2018-09-01T07:51:22.434Z,101011.88
2018-09-01T07:53:50.475Z,101021.19
2018-09-01T07:56:17.492Z,101024.34
2018-09-01T07:58:44.409Z,101025.09
2018-09-01T08:01:11.648Z,101028.08
2018-09-01T08:03:40.459Z,101033.00
2018-09-01T08:06:07.473Z,101038.58
2018-09-01T08:08:35.148Z,101045.42
2018-09-01T08:11:02.527Z,101049.11
2018-09-01T08:13:29.479Z,101047.83
2018-09-01T08:15:56.447Z,101046.86
2018-09-01T08:18:23.364Z,101050.86
2018-09-01T08:20:50.387Z,101056.59
2018-09-01T08:23:19.405Z,101050.52
2018-09-01T08:25:46.329Z,101050.52
2018-09-01T08:28:13.316Z,101049.27
2018-09-01T08:30:40.227Z,101052.75
2018-09-01T08:33:09.271Z,101046.63
2018-09-01T08:35:37.223Z,101050.99
2018-09-01T08:38:06.172Z,101063.77
2018-09-01T08:40:33.052Z,101060.56
2018-09-01T08:43:00.049Z,101061.52
2018-09-01T08:45:27.099Z,101059.66
2018-09-01T08:47:54.602Z,101068.11
2018-09-01T08:50:21.517Z,101073.24
2018-09-01T08:52:48.889Z,101076.42
2018-09-01T08:55:15.882Z,101076.66
2018-09-01T08:57:42.848Z,101074.02
2018-09-01T09:00:11.712Z,101074.46
2018-09-01T09:02:38.551Z,101078.51
2018-09-01T09:05:05.755Z,101070.13
2018-09-01T09:07:32.712Z,101075.11
2018-09-01T09:09:59.670Z,101069.59
2018-09-01T09:12:26.631Z,101068.06
2018-09-01T09:14:53.585Z,101062.08
2018-09-01T09:17:20.544Z,101057.14
2018-09-01T09:19:47.498Z,101060.16
2018-09-01T09:22:14.459Z,101065.69
2018-09-01T09:24:41.603Z,101050.22
2018-09-01T09:27:08.555Z,101049.11
2018-09-01T09:29:39.607Z,101045.57
2018-09-01T09:32:06.665Z,101047.59
2018-09-01T09:34:33.656Z,101040.75
2018-09-01T09:37:00.587Z,101053.42
2018-09-01T09:39:27.551Z,101044.27
2018-09-01T09:41:54.614Z,101041.64
2018-09-01T09:44:21.475Z,101030.89
2018-09-01T09:46:48.434Z,101042.58
2018-09-01T09:49:16.391Z,101053.73
2018-09-01T09:51:43.343Z,101046.50
2018-09-01T09:54:12.386Z,101042.95
2018-09-01T09:56:40.340Z,101030.33
2018-09-01T09:59:07.318Z,101040.09
2018-09-01T10:01:39.771Z,101043.43
2018-09-01T10:04:09.487Z,101033.37
2018-09-01T10:06:37.176Z,101034.31
2018-09-01T10:09:08.781Z,101023.22
2018-09-01T10:11:35.740Z,101022.25
2018-09-01T10:14:02.699Z,101023.17
2018-09-01T10:16:30.672Z,101012.72
2018-09-01T10:18:57.580Z,101012.87
2018-09-01T10:21:24.563Z,101014.77
2018-09-01T10:23:51.541Z,101017.50
2018-09-01T10:26:23.192Z,101015.28
2018-09-01T10:28:50.151Z,101015.63
2018-09-01T10:31:17.724Z,101007.98
2018-09-01T10:33:45.223Z,100996.89
2018-09-01T10:36:12.148Z,101005.89
2018-09-01T10:38:39.113Z,100993.02
2018-09-01T10:41:06.064Z,100989.04
2018-09-01T10:43:33.015Z,100994.78
2018-09-01T10:45:59.986Z,100990.29
2018-09-01T10:48:26.939Z,100990.27
2018-09-01T10:50:53.811Z,100972.25
2018-09-01T10:53:21.780Z,100985.94
2018-09-01T10:55:48.723Z,100992.64
2018-09-01T10:58:15.743Z,100969.34
2018-09-01T11:00:42.636Z,100948.58
2018-09-01T11:03:09.623Z,100959.79
2018-09-01T11:05:36.650Z,100960.71
2018-09-01T11:08:04.180Z,100956.88
2018-09-01T11:10:31.698Z,100972.37
2018-09-01T11:12:58.627Z,100966.84
2018-09-01T11:15:27.252Z,100954.78
2018-09-01T11:17:54.266Z,100941.08
2018-09-01T11:20:21.851Z,100948.39
2018-09-01T11:22:48.714Z,100961.66
2018-09-01T11:25:16.507Z,100965.41
2018-09-01T11:27:47.137Z,100966.09
2018-09-01T11:30:13.975Z,100948.81
2018-09-01T11:32:41.822Z,100961.12
2018-09-01T11:35:09.147Z,100955.41
2018-09-01T11:37:36.136Z,100961.96
2018-09-01T11:40:03.078Z,100962.22
2018-09-01T11:42:30.234Z,100949.93
2018-09-01T11:44:56.984Z,100939.06
2018-09-01T11:47:24.780Z,100942.16
2018-09-01T11:49:51.735Z,100935.91
2018-09-01T11:52:18.719Z,100935.44
2018-09-01T11:54:45.614Z,100944.72
2018-09-01T11:57:12.649Z,100946.88
2018-09-01T11:59:39.676Z,100960.05
2018-09-01T12:02:06.627Z,100962.46
2018-09-01T12:04:34.335Z,100946.53
2018-09-01T12:07:02.265Z,100945.96
2018-09-01T12:09:29.272Z,100952.34
2018-09-01T12:11:56.184Z,100953.09
2018-09-01T12:14:23.131Z,100956.89
2018-09-01T12:16:50.010Z,100959.72
2018-09-01T12:19:16.961Z,100964.81
2018-09-01T12:21:44.744Z,100956.84
2018-09-01T12:24:11.690Z,100954.30
2018-09-01T12:26:38.639Z,100959.05
2018-09-01T12:29:05.606Z,100952.14
2018-09-01T12:31:32.571Z,100944.41
2018-09-01T12:33:59.498Z,100937.75
2018-09-01T12:36:27.355Z,100932.30
2018-09-01T12:38:54.378Z,100931.63
2018-09-01T12:41:21.319Z,100941.38
2018-09-01T12:43:48.282Z,100944.80
2018-09-01T12:46:15.351Z,100939.83
2018-09-01T12:48:42.283Z,100945.09
2018-09-01T12:51:09.741Z,100944.43
2018-09-01T12:53:36.715Z,100943.78
2018-09-01T12:56:03.676Z,100943.02
2018-09-01T12:58:30.616Z,100935.29
2018-09-01T13:00:57.592Z,100938.38
2018-09-01T13:03:24.695Z,100943.53
2018-09-01T13:05:51.610Z,100937.70
2018-09-01T13:08:18.559Z,100938.63
2018-09-01T13:10:46.299Z,100940.42
2018-09-01T13:13:13.310Z,100943.55
2018-09-01T13:15:40.272Z,100937.86
2018-09-01T13:18:07.191Z,100944.79
2018-09-01T13:20:34.347Z,100932.27
2018-09-01T13:23:01.319Z,100938.52
2018-09-01T13:25:28.447Z,100944.12
2018-09-01T13:27:55.364Z,100930.55
2018-09-01T13:30:22.296Z,100930.20
2018-09-01T13:32:50.188Z,100935.09
2018-09-01T13:35:17.933Z,100931.07
2018-09-01T13:37:44.823Z,100928.39
2018-09-01T13:40:12.740Z,100933.55
2018-09-01T13:42:39.596Z,100921.52
2018-09-01T13:45:06.501Z,100934.20
2018-09-01T13:47:33.482Z,100939.91
2018-09-01T13:50:00.419Z,100939.31
2018-09-01T13:52:27.392Z,100927.80
2018-09-01T13:54:54.352Z,100921.73
2018-09-01T13:57:21.307Z,100916.25
2018-09-01T13:59:48.244Z,100917.92
2018-09-01T14:02:15.207Z,100918.61
2018-09-01T14:04:42.166Z,100908.98
2018-09-01T14:07:09.336Z,100905.95
2018-09-01T14:09:36.274Z,100906.33
2018-09-01T14:12:03.246Z,100901.87
2018-09-01T14:14:30.226Z,100896.86
2018-09-01T14:16:57.173Z,100902.30
2018-09-01T14:19:24.107Z,100900.96
2018-09-01T14:21:51.067Z,100900.93
2018-09-01T14:24:18.028Z,100902.63
2018-09-01T14:26:44.977Z,100903.70
2018-09-01T14:29:11.976Z,100901.32
2018-09-01T14:31:38.896Z,100896.10
2018-09-01T14:34:05.919Z,100901.19
2018-09-01T14:36:32.903Z,100900.08
2018-09-01T14:38:59.815Z,100902.98
2018-09-01T14:41:26.763Z,100897.05
2018-09-01T14:43:53.725Z,100898.67
2018-09-01T14:46:20.629Z,100889.59
2018-09-01T14:48:47.657Z,100883.33
2018-09-01T14:51:14.652Z,100889.57
2018-09-01T14:53:41.615Z,100889.59
2018-09-01T14:56:08.559Z,100896.28
2018-09-01T14:58:35.540Z,100901.30
2018-09-01T15:01:02.531Z,100893.66
2018-09-01T15:03:29.472Z,100895.64
2018-09-01T15:05:56.556Z,100898.14
2018-09-01T15:08:23.464Z,100893.75
2018-09-01T15:10:50.475Z,100889.54
2018-09-01T15:13:17.403Z,100884.84
2018-09-01T15:15:44.303Z,100876.97
2018-09-01T15:18:11.291Z,100878.39
2018-09-01T15:20:38.289Z,100876.88
2018-09-01T15:23:06.235Z,100873.89
2018-09-01T15:25:33.202Z,100879.53
2018-09-01T15:28:00.877Z,100884.45
2018-09-01T15:30:27.847Z,100876.72
2018-09-01T15:32:54.791Z,100882.06
2018-09-01T15:35:21.771Z,100877.06
2018-09-01T15:37:48.729Z,100885.68
2018-09-01T15:40:15.670Z,100880.89
2018-09-01T15:42:42.619Z,100890.23
2018-09-01T15:45:09.563Z,100889.78
2018-09-01T15:47:36.527Z,100885.53
2018-09-01T15:50:03.478Z,100885.50
2018-09-01T15:52:30.403Z,100889.30
2018-09-01T15:54:57.399Z,100875.23
2018-09-01T15:57:24.351Z,100883.91
2018-09-01T15:59:51.335Z,100887.88
2018-09-01T16:02:18.380Z,100891.98
2018-09-01T16:04:45.617Z,100890.17
2018-09-01T16:07:12.760Z,100881.94
2018-09-01T16:09:39.786Z,100886.60
2018-09-01T16:12:06.755Z,100876.46
2018-09-01T16:14:33.659Z,100885.71
2018-09-01T16:17:00.833Z,100890.41
2018-09-01T16:19:27.877Z,100880.23
2018-09-01T16:21:54.862Z,100890.48
2018-09-01T16:24:21.855Z,100886.95
2018-09-01T16:26:48.788Z,100892.55
2018-09-01T16:29:15.747Z,100893.16
2018-09-01T16:31:42.748Z,100891.30
2018-09-01T16:34:09.705Z,100891.83
2018-09-01T16:36:36.778Z,100880.63
2018-09-01T16:39:04.881Z,100885.63
2018-09-01T16:41:32.311Z,100889.17
2018-09-01T16:43:59.307Z,100885.92
2018-09-01T16:46:26.365Z,100891.94
2018-09-01T16:48:53.419Z,100878.89
2018-09-01T16:51:20.667Z,100872.38
2018-09-01T16:53:47.443Z,100875.48
2018-09-01T16:56:15.148Z,100878.66
2018-09-01T16:58:42.079Z,100884.27
2018-09-01T17:01:09.352Z,100889.34
2018-09-01T17:03:36.413Z,100885.34
2018-09-01T17:06:03.363Z,100889.33
2018-09-01T17:08:30.291Z,100893.50
2018-09-01T17:10:57.323Z,100885.33
2018-09-01T17:13:24.255Z,100889.91
2018-09-01T17:15:51.219Z,100892.84
2018-09-01T17:18:18.144Z,100897.41
2018-09-01T17:20:45.101Z,100908.71
2018-09-01T17:23:12.187Z,100906.16
2018-09-01T17:25:39.127Z,100908.77
2018-09-01T17:28:06.107Z,100913.07
2018-09-01T17:30:33.215Z,100905.78
2018-09-01T17:33:00.176Z,100916.55
2018-09-01T17:35:27.176Z,100919.14
2018-09-01T17:37:54.111Z,100916.11
2018-09-01T17:40:21.054Z,100920.20
2018-09-01T17:42:48.030Z,100920.08
2018-09-01T17:45:14.979Z,100917.64
2018-09-01T17:47:41.940Z,100924.61
2018-09-01T17:50:08.896Z,100923.05
2018-09-01T17:52:35.756Z,100921.09
2018-09-01T17:55:02.959Z,100918.87
2018-09-01T17:57:29.911Z,100922.28
2018-09-01T17:59:56.927Z,100923.13
2018-09-01T18:02:30.037Z,100928.94
2018-09-01T18:05:03.484Z,100929.08
2018-09-01T18:07:36.666Z,100926.81
2018-09-01T18:10:09.936Z,100931.02
2018-09-01T18:12:42.991Z,100939.45
2018-09-01T18:15:16.467Z,100934.30
2018-09-01T18:17:49.494Z,100928.77
2018-09-01T18:20:22.618Z,100939.88
2018-09-01T18:22:56.959Z,100942.30
2018-09-01T18:25:30.564Z,100956.97
2018-09-01T18:28:03.836Z,100953.97
2018-09-01T18:30:36.831Z,100950.56
2018-09-01T18:33:10.040Z,100954.96
2018-09-01T18:35:43.084Z,100964.20
2018-09-01T18:38:16.271Z,100965.75
2018-09-01T18:40:49.403Z,100966.61
2018-09-01T18:43:22.568Z,100970.11
2018-09-01T18:45:55.746Z,100970.95
2018-09-01T18:48:28.746Z,100969.32
2018-09-01T18:51:02.900Z,100970.84
2018-09-01T18:53:36.124Z,100972.53
2018-09-01T18:56:09.331Z,100973.66
2018-09-01T18:58:42.480Z,100983.36
2018-09-01T19:01:15.843Z,100984.84
2018-09-01T19:03:49.007Z,100987.81
2018-09-01T19:06:21.991Z,100988.44
2018-09-01T19:08:54.955Z,100986.78
2018-09-01T19:11:28.030Z,100981.42
2018-09-01T19:14:01.272Z,100988.83
2018-09-01T19:16:34.451Z,100988.31
2018-09-01T19:19:07.327Z,100985.97
2018-09-01T19:21:40.334Z,100985.77
2018-09-01T19:24:13.404Z,100997.78
2018-09-01T19:26:46.543Z,100989.27
2018-09-01T19:29:19.625Z,100988.80
2018-09-01T19:31:52.727Z,100989.20
2018-09-01T19:34:25.703Z,100986.09
2018-09-01T19:36:58.811Z,100993.34
2018-09-01T19:39:31.919Z,100994.20
2018-09-01T19:42:04.976Z,100991.08
2018-09-01T19:44:38.106Z,100992.53
2018-09-01T19:47:11.229Z,100980.88
2018-09-01T19:49:44.360Z,100982.06
2018-09-01T19:52:17.503Z,100984.52
2018-09-01T19:54:50.555Z,100983.85
2018-09-01T19:57:23.839Z,100987.46
2018-09-01T19:59:57.013Z,100989.91
2018-09-01T20:02:31.263Z,100987.29
2018-09-01T20:05:04.461Z,100978.25
2018-09-01T20:07:37.507Z,100985.77
2018-09-01T20:10:10.589Z,100981.31
2018-09-01T20:12:43.595Z,100985.87
2018-09-01T20:15:16.654Z,100988.33
2018-09-01T20:17:49.916Z,100991.64
2018-09-01T20:21:19.571Z,100987.02
2018-09-01T20:24:33.873Z,100996.42
2018-09-01T20:27:28.663Z,100993.11
2018-09-01T20:30:02.628Z,100999.91
2018-09-01T20:32:35.858Z,100997.22
2018-09-01T20:35:14.722Z,100994.28
2018-09-01T20:37:47.888Z,100988.69
2018-09-01T20:40:21.073Z,100989.78
2018-09-01T20:42:54.268Z,100989.95
2018-09-01T20:45:27.475Z,100991.97
2018-09-01T20:48:00.683Z,100993.13
2018-09-01T20:50:33.883Z,100987.72
2018-09-01T20:53:07.003Z,100988.69
2018-09-01T20:55:40.148Z,100982.09
2018-09-01T20:58:13.295Z,100981.43
2018-09-01T21:00:46.418Z,100982.30
2018-09-01T21:03:21.447Z,100986.02
2018-09-01T21:05:54.539Z,100985.69
2018-09-01T21:08:27.451Z,100983.69
2018-09-01T21:11:00.551Z,100975.92
2018-09-01T21:13:33.759Z,100977.08
2018-09-01T21:16:07.684Z,100975.08
2018-09-01T21:18:40.988Z,100967.40
2018-09-01T21:21:14.062Z,100969.78
2018-09-01T21:23:47.084Z,100967.40
2018-09-01T21:26:20.178Z,100974.77
2018-09-01T21:28:53.279Z,100980.31
2018-09-01T21:31:26.419Z,100976.03
2018-09-01T21:33:59.439Z,100973.59
2018-09-01T21:36:32.391Z,100968.36
2018-09-01T21:39:06.432Z,100970.84
2018-09-01T21:41:39.423Z,100976.23
2018-09-01T21:44:12.634Z,100973.55
2018-09-01T21:46:45.823Z,100967.45
2018-09-01T21:49:19.038Z,100971.48
2018-09-01T21:51:52.111Z,100975.36
2018-09-01T21:54:25.347Z,100971.45
2018-09-01T21:56:58.471Z,100973.35
2018-09-01T21:59:31.561Z,100973.91
2018-09-01T22:02:10.598Z,100974.88
2018-09-01T22:04:49.292Z,100978.78
2018-09-01T22:07:22.431Z,100977.59
2018-09-01T22:09:55.667Z,100970.62
2018-09-01T22:12:28.815Z,100971.54
2018-09-01T22:15:01.957Z,100973.24
2018-09-01T22:17:36.065Z,100970.48
2018-09-01T22:20:09.179Z,100972.09
2018-09-01T22:22:42.273Z,100971.91
2018-09-01T22:25:15.359Z,100974.61
2018-09-01T22:27:48.455Z,100977.52
2018-09-01T22:30:21.767Z,100973.53
2018-09-01T22:32:54.862Z,100968.30
2018-09-01T22:35:28.089Z,100970.69
2018-09-01T22:38:01.063Z,100969.24
2018-09-01T22:40:34.067Z,100967.08
2018-09-01T22:43:07.255Z,100968.84
2018-09-01T22:45:41.212Z,100961.63
2018-09-01T22:48:14.318Z,100959.59
2018-09-01T22:50:47.470Z,100963.17
2018-09-01T22:53:20.492Z,100968.76
2018-09-01T22:55:53.554Z,100966.52
2018-09-01T22:58:26.710Z,100969.47
2018-09-01T23:00:59.807Z,100963.95
2018-09-01T23:03:32.932Z,100965.25
2018-09-01T23:06:05.907Z,100969.16
2018-09-01T23:08:39.047Z,100963.72
2018-09-01T23:11:12.239Z,100970.11
2018-09-01T23:13:46.307Z,100972.05
2018-09-01T23:16:19.344Z,100970.32
2018-09-01T23:18:52.407Z,100965.03
2018-09-01T23:21:25.340Z,100964.68
2018-09-01T23:23:58.336Z,100963.55
2018-09-01T23:26:31.479Z,100959.47
2018-09-01T23:29:04.435Z,100957.66
2018-09-01T23:31:38.467Z,100954.47
2018-09-01T23:34:11.576Z,100953.22
2018-09-01T23:36:44.671Z,100950.83
2018-09-01T23:39:17.908Z,100952.24
2018-09-01T23:41:51.030Z,100959.06
2018-09-01T23:44:23.983Z,100957.48
2018-09-01T23:46:57.093Z,100965.20
2018-09-01T23:49:30.197Z,100963.30
2018-09-01T23:52:03.251Z,100965.84
2018-09-01T23:54:36.383Z,100967.48
2018-09-01T23:57:09.476Z,100964.04
2018-09-01T23:59:43.646Z,100961.11
